Time;durP1;ratioP1;P1;durP2;ratioP2;P2;SDS_P1;SDS_P2;PMS_P1;PMS_P2;Temp;Humidity;BMP_temperature;BMP_pressure;BME280_temperature;BME280_humidity;BME280_pressure;Samples;Min_cycle;Max_cycle;Signal;HPM_P1;HPM_P2
2023/09/20 00:01:01;;;;;;;16.25;5.35;;;;;;;;;;5098060;28;20380;-64
2023/09/20 00:03:28;;;;;;;16.35;5.00;;;;;;;;;;5134918;27;20047;-64
2023/09/20 00:05:54;;;;;;;15.70;5.32;;;;;;;;;;5135798;27;20067;-64
2023/09/20 00:08:20;;;;;;;12.23;4.93;;;;;;;;;;5118118;27;20097;-65
2023/09/20 00:10:46;;;;;;;11.27;4.15;;;;;;;;;;5136141;27;20063;-65
2023/09/20 00:13:13;;;;;;;9.02;3.95;;;;;;;;;;5136242;27;20047;-65
2023/09/20 00:15:43;;;;;;;12.60;4.95;;;;;;;;;;5136883;27;20098;-64
2023/09/20 00:18:09;;;;;;;10.20;5.63;;;;;;;;;;5119559;27;20054;-65
2023/09/20 00:20:36;;;;;;;11.32;3.83;;;;;;;;;;5096812;28;20442;-65
2023/09/20 00:23:04;;;;;;;11.45;3.95;;;;;;;;;;5122022;27;20140;-65
2023/09/20 00:25:30;;;;;;;12.48;3.95;;;;;;;;;;5135354;27;20047;-65
2023/09/20 00:27:56;;;;;;;12.82;5.13;;;;;;;;;;5117585;27;20096;-65
2023/09/20 00:30:22;;;;;;;14.48;4.40;;;;;;;;;;5117004;27;20051;-65
2023/09/20 00:32:48;;;;;;;11.18;4.60;;;;;;;;;;5136691;27;20358;-65
2023/09/20 00:35:16;;;;;;;18.33;4.72;;;;;;;;;;5136541;27;20058;-65
2023/09/20 00:37:44;;;;;;;11.00;4.22;;;;;;;;;;5135160;27;20111;-65
2023/09/20 00:40:15;;;;;;;10.90;4.43;;;;;;;;;;5116354;27;20134;-64
2023/09/20 00:42:42;;;;;;;13.40;3.90;;;;;;;;;;5117011;27;20059;-64
2023/09/20 00:45:09;;;;;;;14.93;4.00;;;;;;;;;;5135979;27;20390;-65
2023/09/20 00:47:36;;;;;;;11.43;3.83;;;;;;;;;;5135339;27;20043;-65
2023/09/20 00:50:02;;;;;;;15.52;3.85;;;;;;;;;;5134338;27;20047;-64
2023/09/20 00:52:28;;;;;;;10.10;3.35;;;;;;;;;;5115664;27;20050;-65
2023/09/20 00:54:57;;;;;;;12.32;4.25;;;;;;;;;;5133715;27;20053;-65
2023/09/20 00:57:24;;;;;;;18.27;3.83;;;;;;;;;;5114414;28;20051;-64
2023/09/20 00:59:51;;;;;;;11.88;3.85;;;;;;;;;;5096957;28;20066;-64
2023/09/20 01:02:19;;;;;;;11.18;3.90;;;;;;;;;;5099933;27;20043;-65
2023/09/20 01:04:46;;;;;;;10.40;3.80;;;;;;;;;;5119284;27;20067;-64
2023/09/20 01:07:12;;;;;;;11.60;4.05;;;;;;;;;;5135927;27;20144;-65
2023/09/20 01:09:39;;;;;;;11.55;3.83;;;;;;;;;;5116910;27;20476;-65
2023/09/20 01:12:05;;;;;;;16.98;4.00;;;;;;;;;;5115394;28;20070;-65
2023/09/20 01:14:31;;;;;;;14.70;4.63;;;;;;;;;;5135198;27;20100;-65
2023/09/20 01:16:57;;;;;;;12.63;4.35;;;;;;;;;;5135172;27;20047;-65
2023/09/20 01:19:23;;;;;;;12.65;3.58;;;;;;;;;;5135108;27;20047;-64
2023/09/20 01:21:49;;;;;;;10.48;3.40;;;;;;;;;;5099068;27;20055;-64
2023/09/20 01:24:18;;;;;;;11.85;3.50;;;;;;;;;;5115567;27;20050;-64
2023/09/20 01:26:45;;;;;;;10.68;3.78;;;;;;;;;;5116580;27;20096;-64
2023/09/20 01:29:12;;;;;;;10.95;3.42;;;;;;;;;;5113705;27;20471;-64
2023/09/20 01:31:38;;;;;;;13.93;3.80;;;;;;;;;;5133939;27;20055;-65
2023/09/20 01:34:04;;;;;;;12.70;3.53;;;;;;;;;;5135713;27;20069;-65
2023/09/20 01:36:30;;;;;;;12.07;3.78;;;;;;;;;;5119703;27;20047;-64
2023/09/20 01:38:56;;;;;;;6.30;3.08;;;;;;;;;;5096081;28;20109;-65
2023/09/20 01:41:22;;;;;;;9.65;4.22;;;;;;;;;;5114276;28;20051;-64
2023/09/20 01:43:48;;;;;;;11.93;3.53;;;;;;;;;;5098038;28;20201;-64
2023/09/20 01:46:15;;;;;;;11.18;3.70;;;;;;;;;;5115030;28;20051;-64
2023/09/20 01:48:42;;;;;;;9.23;4.65;;;;;;;;;;5135009;28;20090;-64
2023/09/20 01:51:08;;;;;;;16.10;4.03;;;;;;;;;;5116033;28;20055;-65
2023/09/20 01:53:34;;;;;;;16.83;4.15;;;;;;;;;;5135145;27;20070;-65
2023/09/20 01:56:00;;;;;;;14.70;3.42;;;;;;;;;;5103904;27;20051;-65
2023/09/20 01:58:26;;;;;;;13.20;3.53;;;;;;;;;;5118561;27;20043;-65
2023/09/20 02:00:52;;;;;;;12.48;3.55;;;;;;;;;;5120279;27;20359;-66
2023/09/20 02:03:18;;;;;;;9.90;3.63;;;;;;;;;;5132275;27;20055;-65
2023/09/20 02:05:47;;;;;;;12.93;3.40;;;;;;;;;;5100572;28;20058;-65
2023/09/20 02:08:13;;;;;;;12.63;3.47;;;;;;;;;;5135630;27;20132;-65
2023/09/20 02:10:40;;;;;;;8.93;3.20;;;;;;;;;;5138544;27;20051;-65
2023/09/20 02:13:07;;;;;;;9.60;2.88;;;;;;;;;;5134648;27;20035;-64
2023/09/20 02:15:34;;;;;;;12.15;3.63;;;;;;;;;;5117218;27;20044;-65
2023/09/20 02:18:02;;;;;;;9.80;3.22;;;;;;;;;;5138606;27;20129;-65
2023/09/20 02:20:33;;;;;;;6.43;2.80;;;;;;;;;;5120465;27;20433;-65
2023/09/20 02:22:59;;;;;;;8.43;2.95;;;;;;;;;;5119904;27;20047;-65
2023/09/20 02:25:26;;;;;;;7.70;2.97;;;;;;;;;;5137318;27;20087;-65
2023/09/20 02:27:54;;;;;;;10.05;3.25;;;;;;;;;;5119648;27;20073;-66
2023/09/20 02:30:24;;;;;;;10.20;2.90;;;;;;;;;;5121049;27;20057;-65
2023/09/20 02:32:52;;;;;;;11.25;2.85;;;;;;;;;;5135637;27;20043;-65
2023/09/20 02:35:18;;;;;;;13.82;3.63;;;;;;;;;;5134650;27;20098;-66
2023/09/20 02:37:46;;;;;;;8.95;2.83;;;;;;;;;;5117400;28;20481;-65
2023/09/20 02:40:15;;;;;;;9.30;3.47;;;;;;;;;;5099393;27;20104;-66
2023/09/20 02:42:43;;;;;;;8.13;2.80;;;;;;;;;;5118096;28;20100;-66
2023/09/20 02:45:13;;;;;;;11.95;3.33;;;;;;;;;;5109191;27;20059;-65
2023/09/20 02:47:40;;;;;;;11.18;3.67;;;;;;;;;;5119584;27;20144;-65
2023/09/20 02:50:23;;;;;;;10.00;3.20;;;;;;;;;;5138307;27;20199;-66
2023/09/20 02:52:50;;;;;;;13.85;3.33;;;;;;;;;;5120512;27;20043;-66
2023/09/20 02:55:17;;;;;;;8.93;3.00;;;;;;;;;;5118718;27;20382;-65
2023/09/20 02:57:44;;;;;;;10.02;3.42;;;;;;;;;;5138310;27;20047;-64
2023/09/20 03:00:15;;;;;;;9.60;3.42;;;;;;;;;;5122571;27;20047;-64
2023/09/20 03:02:49;;;;;;;13.80;3.53;;;;;;;;;;5117465;27;20118;-64
2023/09/20 03:05:17;;;;;;;11.60;3.20;;;;;;;;;;5116874;28;20047;-64
2023/09/20 03:07:47;;;;;;;15.15;3.60;;;;;;;;;;5130778;27;20068;-65
2023/09/20 03:10:13;;;;;;;11.10;3.60;;;;;;;;;;5117428;27;20100;-65
2023/09/20 03:12:44;;;;;;;12.02;4.10;;;;;;;;;;5098675;28;20118;-66
2023/09/20 03:15:23;;;;;;;13.35;3.22;;;;;;;;;;5119132;27;20043;-65
2023/09/20 03:17:51;;;;;;;10.17;3.30;;;;;;;;;;5101739;27;20051;-65
2023/09/20 03:20:18;;;;;;;8.68;2.97;;;;;;;;;;5137040;27;20108;-65
2023/09/20 03:22:44;;;;;;;9.80;2.80;;;;;;;;;;5119007;27;20471;-66
2023/09/20 03:25:13;;;;;;;11.45;3.00;;;;;;;;;;5136314;27;20360;-64
2023/09/20 03:27:43;;;;;;;13.68;3.67;;;;;;;;;;5137510;27;20082;-64
2023/09/20 03:30:13;;;;;;;14.98;3.00;;;;;;;;;;5119948;27;20058;-64
2023/09/20 03:32:40;;;;;;;10.63;2.97;;;;;;;;;;5137084;27;20043;-64
2023/09/20 03:35:07;;;;;;;12.02;3.60;;;;;;;;;;5118404;27;20043;-65
2023/09/20 03:37:36;;;;;;;18.73;3.60;;;;;;;;;;5135520;27;20081;-65
2023/09/20 03:40:03;;;;;;;11.32;3.35;;;;;;;;;;5125660;27;20418;-65
2023/09/20 03:42:29;;;;;;;14.07;3.30;;;;;;;;;;5116437;28;20040;-66
2023/09/20 03:44:55;;;;;;;14.10;3.17;;;;;;;;;;5118445;27;20043;-65
2023/09/20 03:47:21;;;;;;;12.93;3.78;;;;;;;;;;5136620;27;20073;-65
2023/09/20 03:49:51;;;;;;;11.95;3.45;;;;;;;;;;5119025;27;20143;-65
2023/09/20 03:52:18;;;;;;;11.88;3.28;;;;;;;;;;5136017;27;20108;-65
2023/09/20 03:54:49;;;;;;;11.75;3.45;;;;;;;;;;5117203;27;20051;-65
2023/09/20 03:57:15;;;;;;;10.23;3.33;;;;;;;;;;5117943;27;20082;-65
2023/09/20 03:59:41;;;;;;;11.88;3.20;;;;;;;;;;5117426;27;20422;-65
2023/09/20 04:02:13;;;;;;;12.02;3.83;;;;;;;;;;5115102;27;20078;-65
2023/09/20 04:04:40;;;;;;;11.75;3.80;;;;;;;;;;5116299;28;20055;-65
2023/09/20 04:07:06;;;;;;;17.77;4.22;;;;;;;;;;5125073;27;20112;-64
2023/09/20 04:09:32;;;;;;;13.95;3.20;;;;;;;;;;5117538;27;20090;-64
2023/09/20 04:12:02;;;;;;;11.77;3.60;;;;;;;;;;5118070;27;20047;-64
2023/09/20 04:14:29;;;;;;;11.57;4.00;;;;;;;;;;5105647;28;20130;-64
2023/09/20 04:16:55;;;;;;;15.07;3.97;;;;;;;;;;5125923;27;20043;-65
2023/09/20 04:19:21;;;;;;;12.75;3.38;;;;;;;;;;5097488;28;20097;-64
2023/09/20 04:21:47;;;;;;;10.57;3.53;;;;;;;;;;5131819;27;20059;-65
2023/09/20 04:24:13;;;;;;;12.05;3.63;;;;;;;;;;5135639;27;20051;-64
2023/09/20 04:26:39;;;;;;;17.15;3.60;;;;;;;;;;5116654;27;20047;-64
2023/09/20 04:29:06;;;;;;;15.25;4.00;;;;;;;;;;5136949;27;20378;-64
2023/09/20 04:31:33;;;;;;;12.10;3.63;;;;;;;;;;5135342;27;20478;-64
2023/09/20 04:34:00;;;;;;;13.82;3.67;;;;;;;;;;5113647;27;20047;-64
2023/09/20 04:36:27;;;;;;;10.63;4.20;;;;;;;;;;5132495;27;20046;-64
2023/09/20 04:38:53;;;;;;;14.40;3.97;;;;;;;;;;5100234;27;20467;-64
2023/09/20 04:41:19;;;;;;;11.95;3.70;;;;;;;;;;5136067;27;20137;-63
2023/09/20 04:43:45;;;;;;;11.48;3.50;;;;;;;;;;5114017;27;20083;-63
2023/09/20 04:46:11;;;;;;;11.43;3.88;;;;;;;;;;5132500;27;20106;-63
2023/09/20 04:48:39;;;;;;;12.00;3.50;;;;;;;;;;5131277;27;20063;-63
2023/09/20 04:51:05;;;;;;;17.83;4.75;;;;;;;;;;5133138;27;20065;-63
2023/09/20 04:53:33;;;;;;;10.27;4.07;;;;;;;;;;5113765;27;20125;-63
2023/09/20 04:55:59;;;;;;;8.95;3.50;;;;;;;;;;5132436;27;20050;-63
2023/09/20 04:58:25;;;;;;;11.13;3.22;;;;;;;;;;5130718;27;20138;-63
2023/09/20 05:00:52;;;;;;;13.00;3.58;;;;;;;;;;5116805;27;20433;-63
2023/09/20 05:03:19;;;;;;;10.07;4.05;;;;;;;;;;5104058;27;20475;-64
2023/09/20 05:05:47;;;;;;;11.38;4.00;;;;;;;;;;5125649;27;20452;-65
2023/09/20 05:08:18;;;;;;;14.80;3.53;;;;;;;;;;5132277;27;20053;-64
2023/09/20 05:10:44;;;;;;;13.23;4.50;;;;;;;;;;5132937;27;20051;-65
2023/09/20 05:13:10;;;;;;;8.77;3.47;;;;;;;;;;5114189;27;20047;-64
2023/09/20 05:15:39;;;;;;;9.45;3.22;;;;;;;;;;5113148;27;20108;-64
2023/09/20 05:18:06;;;;;;;11.25;3.58;;;;;;;;;;5131230;27;20054;-65
2023/09/20 05:20:33;;;;;;;8.30;3.38;;;;;;;;;;5109973;28;20475;-64
2023/09/20 05:23:00;;;;;;;9.13;3.25;;;;;;;;;;5129949;27;20435;-64
2023/09/20 05:25:27;;;;;;;9.15;3.20;;;;;;;;;;5132884;27;20062;-64
2023/09/20 05:27:54;;;;;;;6.00;2.88;;;;;;;;;;5113519;27;20432;-65
2023/09/20 05:30:20;;;;;;;10.93;3.15;;;;;;;;;;5128812;27;20134;-64
2023/09/20 05:32:50;;;;;;;16.63;3.35;;;;;;;;;;5130744;27;20039;-64
2023/09/20 05:35:17;;;;;;;7.45;2.63;;;;;;;;;;5113549;28;20047;-64
2023/09/20 05:37:43;;;;;;;11.48;3.83;;;;;;;;;;5120923;27;20189;-64
2023/09/20 05:40:18;;;;;;;15.70;3.67;;;;;;;;;;5125387;27;20054;-64
2023/09/20 05:42:44;;;;;;;11.45;3.15;;;;;;;;;;5113067;28;20043;-64
2023/09/20 05:45:11;;;;;;;11.65;3.00;;;;;;;;;;5110254;27;20043;-60
2023/09/20 05:47:37;;;;;;;10.40;3.15;;;;;;;;;;5092798;28;20059;-60
2023/09/20 05:50:03;;;;;;;14.40;4.00;;;;;;;;;;5108443;28;20055;-61
2023/09/20 05:52:29;;;;;;;7.55;2.65;;;;;;;;;;5132192;28;20096;-60
2023/09/20 05:54:55;;;;;;;9.70;2.85;;;;;;;;;;5109328;28;20487;-60
2023/09/20 05:57:22;;;;;;;7.57;2.95;;;;;;;;;;5130394;28;20051;-60
2023/09/20 05:59:48;;;;;;;8.68;3.47;;;;;;;;;;5098085;28;20063;-60
2023/09/20 06:02:14;;;;;;;14.90;3.47;;;;;;;;;;5105284;28;20055;-60
2023/09/20 06:04:40;;;;;;;11.50;3.38;;;;;;;;;;5110047;28;20055;-60
2023/09/20 06:07:06;;;;;;;9.88;2.88;;;;;;;;;;5127644;28;20046;-60
2023/09/20 06:09:32;;;;;;;6.88;2.65;;;;;;;;;;5104650;28;20059;-60
2023/09/20 06:12:02;;;;;;;11.20;3.15;;;;;;;;;;5112002;28;20479;-60
2023/09/20 06:14:28;;;;;;;;;;;;;;;;;;5096586;28;20055;-60
2023/09/20 06:16:54;;;;;;;13.50;3.00;;;;;;;;;;5132069;28;20390;-60
2023/09/20 06:19:20;;;;;;;11.73;3.10;;;;;;;;;;5114105;28;20046;-59
2023/09/20 06:21:47;;;;;;;7.47;2.95;;;;;;;;;;5132744;28;20213;-60
2023/09/20 06:24:13;;;;;;;6.28;2.75;;;;;;;;;;5113336;28;20046;-60
2023/09/20 06:26:40;;;;;;;11.00;3.10;;;;;;;;;;5114286;28;20188;-60
2023/09/20 06:29:09;;;;;;;9.90;2.97;;;;;;;;;;5112626;28;20046;-60
2023/09/20 06:31:37;;;;;;;7.85;2.50;;;;;;;;;;5114247;28;20055;-60
2023/09/20 06:34:03;;;;;;;11.18;2.95;;;;;;;;;;5102872;28;20047;-61
2023/09/20 06:36:29;;;;;;;11.90;2.72;;;;;;;;;;5105840;28;20047;-60
2023/09/20 06:38:55;;;;;;;7.80;2.78;;;;;;;;;;5110183;28;20104;-59
2023/09/20 06:41:23;;;;;;;11.32;2.95;;;;;;;;;;5133796;27;20126;-60
2023/09/20 06:43:49;;;;;;;8.65;2.65;;;;;;;;;;5117072;27;20095;-60
2023/09/20 06:46:15;;;;;;;9.65;3.08;;;;;;;;;;5122477;27;20112;-60
2023/09/20 06:48:41;;;;;;;6.57;2.70;;;;;;;;;;5117969;27;20050;-59
2023/09/20 06:51:09;;;;;;;8.52;3.13;;;;;;;;;;5131911;27;20059;-59
2023/09/20 06:53:35;;;;;;;9.98;3.85;;;;;;;;;;5134610;27;20516;-59
2023/09/20 06:56:01;;;;;;;11.40;4.00;;;;;;;;;;5130884;27;20189;-61
2023/09/20 06:58:28;;;;;;;6.55;2.28;;;;;;;;;;5135115;27;20212;-59
2023/09/20 07:00:54;;;;;;;13.13;3.45;;;;;;;;;;5100167;27;20051;-59
2023/09/20 07:03:20;;;;;;;9.07;2.60;;;;;;;;;;5116403;27;20115;-59
2023/09/20 07:05:46;;;;;;;9.82;3.00;;;;;;;;;;5116034;27;20134;-59
2023/09/20 07:08:14;;;;;;;10.40;2.70;;;;;;;;;;5099281;27;20134;-59
2023/09/20 07:10:41;;;;;;;9.82;2.20;;;;;;;;;;5117049;27;20050;-59
2023/09/20 07:13:09;;;;;;;7.60;3.97;;;;;;;;;;5132811;27;20051;-60
2023/09/20 07:15:36;;;;;;;8.55;2.63;;;;;;;;;;5127108;27;20051;-59
2023/09/20 07:18:12;;;;;;;9.27;2.70;;;;;;;;;;5134866;27;20107;-60
2023/09/20 07:20:39;;;;;;;8.43;3.03;;;;;;;;;;5111987;27;20130;-59
2023/09/20 07:23:09;;;;;;;7.60;2.95;;;;;;;;;;5114876;27;20073;-59
2023/09/20 07:25:36;;;;;;;6.63;2.60;;;;;;;;;;5111894;27;20055;-59
2023/09/20 07:28:04;;;;;;;6.40;2.80;;;;;;;;;;5091570;27;20051;-59
2023/09/20 07:30:31;;;;;;;7.40;2.75;;;;;;;;;;5115133;27;20051;-59
2023/09/20 07:32:59;;;;;;;8.45;2.83;;;;;;;;;;5090929;27;20473;-59
2023/09/20 07:35:36;;;;;;;8.45;2.72;;;;;;;;;;5115112;27;20059;-59
2023/09/20 07:38:03;;;;;;;9.30;2.95;;;;;;;;;;5131446;27;20525;-59
2023/09/20 07:40:33;;;;;;;7.57;2.65;;;;;;;;;;5131196;27;20063;-59
2023/09/20 07:43:07;;;;;;;8.88;2.92;;;;;;;;;;5089737;27;20126;-59
2023/09/20 07:45:38;;;;;;;7.57;2.35;;;;;;;;;;5131360;27;20047;-59
2023/09/20 07:48:11;;;;;;;9.50;2.20;;;;;;;;;;5092416;27;20054;-60
2023/09/20 07:50:40;;;;;;;11.32;3.08;;;;;;;;;;5113104;27;20398;-59
2023/09/20 07:53:09;;;;;;;9.43;2.85;;;;;;;;;;5108741;27;20043;-59
2023/09/20 07:55:36;;;;;;;8.07;2.42;;;;;;;;;;5113149;27;21398;-59
2023/09/20 07:58:02;;;;;;;10.20;2.88;;;;;;;;;;5113822;27;20111;-61
2023/09/20 08:00:28;;;;;;;9.70;3.35;;;;;;;;;;5093500;27;20397;-60
2023/09/20 08:02:54;;;;;;;9.77;2.75;;;;;;;;;;5112953;27;20047;-59
2023/09/20 08:05:22;;;;;;;12.13;2.78;;;;;;;;;;5095855;27;20475;-59
2023/09/20 08:07:48;;;;;;;13.05;4.38;;;;;;;;;;5096811;27;20386;-59
2023/09/20 08:10:14;;;;;;;16.63;5.65;;;;;;;;;;5130856;27;20047;-59
2023/09/20 08:12:40;;;;;;;14.93;6.28;;;;;;;;;;5133288;27;20058;-59
2023/09/20 08:15:06;;;;;;;11.70;4.47;;;;;;;;;;5115543;27;20046;-59
2023/09/20 08:20:38;;;;;;;10.05;4.20;;;;;;;;;;5105648;27;20094;-59
2023/09/20 09:01:38;;;;;;;9.07;3.55;;;;;;;;;;5111711;27;20051;-58
2023/09/20 09:04:08;;;;;;;7.53;3.67;;;;;;;;;;5112403;27;20475;-58
2023/09/20 09:06:34;;;;;;;7.30;3.58;;;;;;;;;;5111954;27;20495;-58
2023/09/20 09:09:02;;;;;;;13.85;4.10;;;;;;;;;;5132019;27;20554;-58
2023/09/20 09:11:29;;;;;;;8.50;3.65;;;;;;;;;;5113664;27;20043;-58
2023/09/20 09:13:58;;;;;;;6.82;3.58;;;;;;;;;;5132128;27;20054;-58
2023/09/20 09:16:28;;;;;;;5.97;3.80;;;;;;;;;;5097705;27;20054;-58
2023/09/20 09:18:55;;;;;;;8.98;3.92;;;;;;;;;;5114015;27;20096;-58
2023/09/20 09:21:22;;;;;;;11.88;3.65;;;;;;;;;;5129198;27;20441;-58
2023/09/20 09:23:48;;;;;;;9.57;4.50;;;;;;;;;;5095984;27;20050;-58
2023/09/20 09:26:14;;;;;;;9.27;4.80;;;;;;;;;;5132533;27;20031;-58
2023/09/20 09:28:42;;;;;;;9.18;4.47;;;;;;;;;;5114735;27;20471;-58
2023/09/20 09:31:09;;;;;;;12.25;4.90;;;;;;;;;;5131431;27;20079;-58
2023/09/20 09:33:36;;;;;;;8.52;4.30;;;;;;;;;;5132818;27;20039;-58
2023/09/20 09:36:04;;;;;;;8.15;5.03;;;;;;;;;;5108806;27;20055;-59
2023/09/20 09:38:34;;;;;;;9.18;4.82;;;;;;;;;;5127773;27;20376;-58
2023/09/20 09:41:01;;;;;;;12.02;4.82;;;;;;;;;;5101090;28;20508;-58
2023/09/20 09:43:30;;;;;;;11.95;5.22;;;;;;;;;;5104333;28;20058;-58
2023/09/20 09:46:09;;;;;;;9.82;4.55;;;;;;;;;;5132318;27;20054;-58
2023/09/20 09:48:38;;;;;;;5.55;4.30;;;;;;;;;;5130671;27;20055;-58
2023/09/20 09:51:06;;;;;;;11.25;4.80;;;;;;;;;;5105780;28;20046;-58
2023/09/20 09:53:34;;;;;;;6.68;4.05;;;;;;;;;;5123746;28;20050;-58
2023/09/20 09:56:03;;;;;;;8.13;4.32;;;;;;;;;;5129972;28;20047;-58
2023/09/20 09:58:29;;;;;;;8.60;3.78;;;;;;;;;;5130466;28;20043;-58
2023/09/20 10:00:57;;;;;;;8.32;4.53;;;;;;;;;;5109099;28;20048;-59
2023/09/20 10:03:32;;;;;;;9.75;4.30;;;;;;;;;;5099438;28;20098;-59
2023/09/20 10:06:06;;;;;;;6.75;4.32;;;;;;;;;;5126184;28;20122;-59
2023/09/20 10:08:37;;;;;;;6.28;4.75;;;;;;;;;;5129456;27;20392;-58
2023/09/20 10:11:06;;;;;;;6.65;4.07;;;;;;;;;;5128638;28;20367;-58
2023/09/20 10:13:36;;;;;;;7.85;4.40;;;;;;;;;;5132517;28;20052;-58
2023/09/20 10:16:10;;;;;;;6.38;4.05;;;;;;;;;;5135518;27;20125;-58
2023/09/20 10:18:52;;;;;;;6.55;4.20;;;;;;;;;;5118319;27;20039;-58
2023/09/20 10:21:22;;;;;;;6.47;4.20;;;;;;;;;;5115428;27;20484;-58
2023/09/20 10:23:50;;;;;;;;;;;18.40;99.90;;;;;;5118332;27;20039;-58
2023/09/20 10:26:20;;;;;;;8.60;3.72;;;;;;;;;;5116558;27;19915;-58
2023/09/20 10:28:47;;;;;;;8.18;4.63;;;;;;;;;;5136317;27;20126;-58
2023/09/20 10:31:18;;;;;;;6.60;4.53;;;;;;;;;;5098715;27;20058;-58
2023/09/20 10:33:57;;;;;;;6.85;4.30;;;18.80;99.90;;;;;;5116009;28;20044;-58
2023/09/20 10:36:24;;;;;;;10.27;4.45;;;;;;;;;;5116118;27;20462;-58
2023/09/20 10:39:16;;;;;;;6.38;4.65;;;;;;;;;;5117083;27;20083;-58
2023/09/20 10:41:46;;;;;;;5.63;3.88;;;;;;;;;;5140903;27;20406;-58
2023/09/20 10:44:26;;;;;;;6.55;3.50;;;;;;;;;;5130636;27;20046;-59
2023/09/20 10:46:53;;;;;;;6.40;4.00;;;;;;;;;;5116817;27;20051;-59
2023/09/20 10:49:41;;;;;;;5.28;3.45;;;;;;;;;;5115793;27;20047;-58
2023/09/20 10:52:10;;;;;;;6.18;3.53;;;;;;;;;;5134701;27;20043;-59
2023/09/20 10:54:36;;;;;;;7.03;3.97;;;;;;;;;;5124535;27;20467;-58
2023/09/20 10:57:12;;;;;;;6.70;2.90;;;;;;;;;;5137442;27;20474;-59
2023/09/20 10:59:41;;;;;;;7.25;4.00;;;19.20;99.90;;;;;;5156396;27;20419;-58
2023/09/20 11:02:13;;;;;;;7.22;3.50;;;;;;;;;;5136851;27;20217;-58
2023/09/20 11:04:41;;;;;;;6.38;3.63;;;;;;;;;;5130519;27;20054;-58
2023/09/20 11:07:08;;;;;;;7.97;4.10;;;;;;;;;;5120991;27;20055;-58
2023/09/20 11:09:34;;;;;;;7.80;3.95;;;;;;;;;;5136506;27;20047;-58
2023/09/20 11:12:06;;;;;;;6.93;3.58;;;;;;;;;;5135895;27;20390;-58
2023/09/20 11:14:40;;;;;;;5.97;3.20;;;;;;;;;;5132926;27;20448;-58
2023/09/20 11:17:06;;;;;;;11.77;4.45;;;;;;;;;;5130073;27;20413;-58
2023/09/20 11:19:33;;;;;;;7.75;4.20;;;;;;;;;;5129587;27;20430;-58
2023/09/20 11:21:59;;;;;;;10.10;4.40;;;;;;;;;;5130421;27;20047;-58
2023/09/20 11:24:28;;;;;;;7.57;4.00;;;;;;;;;;5112188;27;20047;-58
2023/09/20 11:26:55;;;;;;;5.50;4.15;;;;;;;;;;5131564;27;20376;-58
2023/09/20 11:29:21;;;;;;;7.55;4.90;;;;;;;;;;5132687;27;20122;-58
2023/09/20 11:31:48;;;;;;;6.20;4.38;;;;;;;;;;5107638;28;20054;-58
2023/09/20 11:34:17;;;;;;;7.75;5.00;;;;;;;;;;5130520;27;20546;-58
2023/09/20 11:36:47;;;;;;;9.60;4.63;;;;;;;;;;5113704;27;20066;-58
2023/09/20 11:39:17;;;;;;;;;;;;;;;;;;5115174;27;20575;-58
2023/09/20 11:41:47;;;;;;;6.90;4.35;;;;;;;;;;5129635;27;19927;-58
2023/09/20 11:44:13;;;;;;;;;;;;;;;;;;5130036;27;20059;-59
2023/09/20 11:46:39;;;;;;;6.20;4.63;;;;;;;;;;5134772;27;19969;-56
2023/09/20 11:49:08;;;;;;;7.40;4.43;;;;;;;;;;5116298;27;20055;-59
2023/09/20 11:51:36;;;;;;;7.85;4.40;;;;;;;;;;5134269;27;20100;-62
2023/09/20 11:54:05;;;;;;;6.80;4.05;;;;;;;;;;5130027;27;20487;-63
2023/09/20 11:56:33;;;;;;;8.57;4.82;;;;;;;;;;5099819;27;20529;-62
2023/09/20 11:58:59;;;;;;;11.48;4.38;;;;;;;;;;5115839;27;20051;-62
2023/09/20 12:01:29;;;;;;;9.07;4.45;;;;;;;;;;5116207;27;20071;-62
2023/09/20 12:03:55;;;;;;;6.82;4.00;;;;;;;;;;5114183;27;20395;-63
2023/09/20 12:06:21;;;;;;;5.97;3.97;;;;;;;;;;5099204;27;20055;-62
2023/09/20 12:08:48;;;;;;;13.95;5.45;;;;;;;;;;5114438;27;20059;-62
2023/09/20 12:11:14;;;;;;;10.10;3.97;;;;;;;;;;5134119;27;20529;-62
2023/09/20 12:13:46;;;;;;;7.88;3.72;;;;;;;;;;5114513;27;20051;-62
2023/09/20 12:16:13;;;;;;;3.63;2.65;;;;;;;;;;5112903;27;20051;-61
2023/09/20 12:18:39;;;;;;;7.30;3.22;;;;;;;;;;5096521;27;20180;-61
2023/09/20 12:21:07;;;;;;;8.38;3.00;;;;;;;;;;5115257;27;20062;-61
2023/09/20 12:23:35;;;;;;;6.47;2.60;;;;;;;;;;5115458;27;20087;-62
2023/09/20 12:26:03;;;;;;;5.78;2.60;;;;;;;;;;5096247;27;20047;-61
2023/09/20 12:28:29;;;;;;;7.13;2.70;;;;;;;;;;5115220;27;20049;-62
2023/09/20 12:30:56;;;;;;;4.15;2.42;;;;;;;;;;5133763;27;20551;-61
2023/09/20 12:33:24;;;;;;;7.15;2.28;;;;;;;;;;5097308;27;20043;-61
2023/09/20 12:35:52;;;;;;;6.38;2.63;;;;;;;;;;5114336;27;20126;-61
2023/09/20 12:38:18;;;;;;;7.38;2.80;;;;;;;;;;5113270;27;20130;-61
2023/09/20 12:40:44;;;;;;;5.88;2.67;;;;;;;;;;5100414;27;20049;-63
2023/09/20 12:43:10;;;;;;;6.93;2.70;;;;;;;;;;5117076;27;20379;-61
2023/09/20 12:45:36;;;;;;;8.10;2.67;;;;;;;;;;5116247;27;20086;-61
2023/09/20 12:48:02;;;;;;;5.60;2.60;;;;;;;;;;5096902;28;20066;-62
2023/09/20 12:50:36;;;;;;;7.60;2.28;;;;;;;;;;5136023;27;20055;-61
2023/09/20 12:53:02;;;;;;;4.82;2.78;;;;;;;;;;5138295;27;20077;-62
2023/09/20 12:55:28;;;;;;;5.90;2.33;;;;;;;;;;5146475;27;20478;-61
2023/09/20 12:57:54;;;;;;;7.93;2.35;;;;;;;;;;5154427;27;20111;-62
2023/09/20 13:00:20;;;;;;;6.93;2.22;;;;;;;;;;5105309;28;20047;-61
2023/09/20 13:02:47;;;;;;;6.00;2.58;;;;;;;;;;5097294;28;20096;-61
2023/09/20 13:05:13;;;;;;;7.05;2.65;;;;;;;;;;5106329;27;20463;-62
2023/09/20 13:07:39;;;;;;;5.80;2.50;;;;;;;;;;5138649;27;20054;-61
2023/09/20 13:10:13;;;;;;;5.18;2.58;;;;;;;;;;5103971;27;20053;-62
2023/09/20 13:12:42;;;;;;;6.95;2.67;;;;;;;;;;5137444;27;20030;-62
2023/09/20 13:15:12;;;;;;;6.15;3.30;;;;;;;;;;5121090;27;20388;-61
2023/09/20 13:17:39;;;;;;;8.02;2.50;;;20.80;99.90;;;;;;5100419;27;20156;-62
2023/09/20 13:20:06;;;;;;;5.70;2.60;;;21.10;99.90;;;;;;5100075;27;20043;-62
2023/09/20 13:22:32;;;;;;;7.50;3.10;;;;;;;;;;5117493;27;20043;-62
2023/09/20 13:25:00;;;;;;;8.57;3.55;;;;;;;;;;5134926;27;20053;-62
2023/09/20 13:27:26;;;;;;;7.68;3.40;;;;;;;;;;5117776;27;20061;-62
2023/09/20 13:29:54;;;;;;;7.72;3.50;;;;;;;;;;5100285;27;20065;-62
2023/09/20 13:32:20;;;;;;;7.72;3.35;;;21.30;99.90;;;;;;5116843;27;20042;-62
2023/09/20 13:34:46;;;;;;;8.20;3.28;;;;;;;;;;5134946;27;20046;-62
2023/09/20 13:37:12;;;;;;;6.78;2.65;;;;;;;;;;5134635;27;20506;-62
2023/09/20 13:39:42;;;;;;;7.40;3.00;;;;;;;;;;5116670;27;20088;-61
2023/09/20 13:42:14;;;;;;;6.03;2.85;;;;;;;;;;5116742;28;20047;-62
2023/09/20 13:44:42;;;;;;;6.38;2.50;;;;;;;;;;5117022;27;20051;-62
2023/09/20 13:47:08;;;;;;;8.13;2.75;;;;;;;;;;5116446;27;20047;-62
2023/09/20 13:49:37;;;;;;;6.20;2.50;;;21.20;99.90;;;;;;5115770;27;20050;-63
2023/09/20 13:52:05;;;;;;;7.25;2.50;;;21.30;99.90;;;;;;5116184;28;20130;-62
2023/09/20 13:54:32;;;;;;;7.43;2.47;;;;;;;;;;5099687;28;20047;-62
2023/09/20 13:56:58;;;;;;;4.93;2.65;;;;;;;;;;5099692;28;20187;-62
2023/09/20 13:59:25;;;;;;;7.70;3.17;;;;;;;;;;5116312;28;20051;-62
2023/09/20 14:01:53;;;;;;;8.02;2.60;;;;;;;;;;5106172;27;20137;-62
2023/09/20 14:04:19;;;;;;;5.95;2.70;;;;;;;;;;5137044;27;20053;-62
2023/09/20 14:06:45;;;;;;;5.15;2.47;;;;;;;;;;5155373;27;20038;-62
2023/09/20 14:09:13;;;;;;;8.02;3.03;;;;;;;;;;5136762;27;20058;-62
2023/09/20 14:11:39;;;;;;;7.22;3.25;;;;;;;;;;5136846;27;20103;-62
2023/09/20 14:14:06;;;;;;;5.90;3.08;;;;;;;;;;5119302;27;20043;-61
2023/09/20 14:16:34;;;;;;;6.53;3.05;;;;;;;;;;5155270;27;20053;-62
2023/09/20 14:19:00;;;;;;;5.35;2.80;;;;;;;;;;5135809;27;20062;-63
2023/09/20 14:21:26;;;;;;;7.72;2.95;;;21.80;99.90;;;;;;5116294;28;20047;-62
2023/09/20 14:23:53;;;;;;;6.57;3.03;;;;;;;;;;5133288;28;20058;-61
2023/09/20 14:26:19;;;;;;;5.10;2.60;;;;;;;;;;5116617;28;20051;-62
2023/09/20 14:28:45;;;;;;;8.65;2.67;;;;;;;;;;5134913;28;20066;-62
2023/09/20 14:31:16;;;;;;;4.63;2.40;;;21.40;99.90;;;;;;5134616;28;20051;-62
2023/09/20 14:33:42;;;;;;;5.07;2.58;;;;;;;;;;5115952;28;20058;-63
2023/09/20 14:36:11;;;;;;;6.65;3.00;;;;;;;;;;5134329;28;20051;-62
2023/09/20 14:38:37;;;;;;;5.70;2.58;;;;;;;;;;5116188;28;20493;-62
2023/09/20 14:41:05;;;;;;;5.15;2.40;;;;;;;;;;5116465;28;20047;-62
2023/09/20 14:43:31;;;;;;;7.85;2.72;;;;;;;;;;5099652;28;20054;-62
2023/09/20 14:45:58;;;;;;;7.75;2.88;;;21.60;99.90;;;;;;5134313;28;20131;-62
2023/09/20 14:48:24;;;;;;;5.30;3.03;;;;;;;;;;5099702;28;20051;-62
2023/09/20 14:50:50;;;;;;;5.07;2.70;;;;;;;;;;5116126;28;20049;-61
2023/09/20 14:53:18;;;;;;;5.45;2.45;;;21.30;99.90;;;;;;5115957;28;20050;-61
2023/09/20 14:55:45;;;;;;;5.95;2.78;;;;;;;;;;5116087;28;20051;-62
2023/09/20 14:58:12;;;;;;;4.90;2.85;;;;;;;;;;5116122;28;20132;-61
2023/09/20 15:00:39;;;;;;;5.03;2.65;;;;;;;;;;5116660;27;20061;-62
2023/09/20 15:03:04;;;;;;;5.93;2.85;;;21.50;99.90;;;;;;5137862;27;20070;-62
2023/09/20 15:05:37;;;;;;;5.65;2.85;;;21.80;99.90;;;;;;5137109;27;20483;-62
2023/09/20 15:08:04;;;;;;;5.72;2.80;;;21.50;99.90;;;;;;5137687;27;20386;-62
2023/09/20 15:10:30;;;;;;;5.43;2.80;;;;;;;;;;5137667;27;20054;-61
2023/09/20 15:12:57;;;;;;;7.65;3.25;;;21.90;99.90;;;;;;5117880;28;20035;-62
2023/09/20 15:15:32;;;;;;;6.07;2.95;;;21.60;99.90;;;;;;5101274;28;20126;-62
2023/09/20 15:17:58;;;;;;;7.25;3.08;;;;;;;;;;5136325;28;20437;-62